HALF-HOURLY OBSERVATIONS INDEX

089

Western Plains

BALLARAT AERODROME

Site: 089002
Alt: 435.2m
8km NW of BALLARAT


  Time     Wind        Temp  DP   Baro     Rain since   Rain past  Vis(m), Cloud(base in m), Weather
  local        km/h                         9am  last   hr   10m    
Mon 11:00  SSE 26/ 33  15.4 10.4  1019.9    0.0   0.0   0.0   0.0   10000|OC 480 
Mon 11:06  SSE 26/ 35  15.8 10.1  1019.9    0.0   0.0  ----   0.0   10000|OC 480 
Mon 11:30   SE 28/ 37  15.8  9.2  1019.8    0.0   0.0   0.0   0.0   10000|BR 540 
Mon 12:00   SE 22/ 33  18.1  9.5  1019.7    0.0   0.0   0.0   0.0   10000|SC 660 
Mon 12:30   SE 22/ 32  19.5  9.7  1019.7    0.2   0.2   0.2   0.0   10000 
Mon 13:00   SE 28/ 37  20.1  9.1  1019.5    0.2   0.0   0.2   0.0   10000 
Mon 13:30   SE 24/ 39  20.0  9.0  1019.3    0.2   0.0   0.0   0.0   10000 
Mon 14:00  SSE 28/ 35  21.4  8.0  1019.2    0.2   0.0   0.0   0.0   10000 
Mon 14:30  SSE 24/ 32  20.6  7.6  1019.0    0.2   0.0   0.0   0.0   10000 
Mon 15:00   SE 26/ 32  19.8  7.2  1018.9    0.2   0.0   0.0   0.0   10000 
Mon 15:30  SSE 26/ 33  20.8  7.1  1018.8    0.2   0.0   0.0   0.0   10000 
Mon 16:00   SE 28/ 39  20.3  7.7  1018.4    0.2   0.0   0.0   0.0   10000 
Mon 16:30  SSE 30/ 37  20.6  7.9  1018.2    0.2   0.0   0.0   0.0   10000 

WESTMERE

Site: 089112
Alt: 226.0m
47km S of ARARAT


  Time     Wind        Temp  DP   Baro     Rain since   Rain past  Vis(m), Cloud(base in m), Weather
  local        km/h                         9am  last   hr   10m    
Mon 11:00  SSE 20/ 26  18.0  8.8  1020.3    0.0   0.0   0.0   0.0   ----- 
Mon 11:30   SE 22/ 32  18.6  7.7  1020.2    0.0   0.0   0.0   0.0   ----- 
Mon 12:00  SSE 20/ 30  20.1  7.8  1020.1    0.0   0.0   0.0   0.0   ----- 
Mon 12:30   SE 20/ 28  20.5  7.2  1020.1    0.0   0.0   0.0   0.0   ----- 
Mon 13:00  SSE 19/ 28  20.0  7.1  1019.7    0.0   0.0   0.0   0.0   ----- 
Mon 13:30  SSE 20/ 30  21.4  7.3  1019.6    0.0   0.0   0.0   0.0   ----- 
Mon 14:00  SSE 19/ 28  20.9  6.8  1019.4    0.0   0.0   0.0   0.0   ----- 
Mon 14:30  SSE 19/ 30  21.8  7.2  1019.2    0.0   0.0   0.0   0.0   ----- 
Mon 15:00  SSE 20/ 28  21.6  7.1  1019.1    0.0   0.0   0.0   0.0   ----- 
Mon 15:30   SE 19/ 28  22.4  7.0  1018.6    0.0   0.0   0.0   0.0   ----- 
Mon 16:00   SE 20/ 33  23.1  7.2  1018.3    0.0   0.0   0.0   0.0   ----- 
Mon 16:30  SSE 22/ 28  22.1  7.1  1018.4    0.0   0.0   0.0   0.0   -----